createdAt,value
2022-08-19T00:01:52.741Z,13.45
2022-08-19T00:04:24.253Z,13.40
2022-08-19T00:06:53.871Z,13.32
2022-08-19T00:09:25.115Z,13.75
2022-08-19T00:11:56.491Z,14.35
2022-08-19T00:14:26.728Z,13.73
2022-08-19T00:16:56.876Z,12.85
2022-08-19T00:19:25.929Z,12.77
2022-08-19T00:21:55.427Z,13.88
2022-08-19T00:24:24.425Z,13.20
2022-08-19T00:26:54.530Z,13.50
2022-08-19T00:29:24.215Z,14.15
2022-08-19T00:31:55.572Z,14.00
2022-08-19T00:34:28.902Z,13.38
2022-08-19T00:36:58.836Z,12.43
2022-08-19T00:39:27.510Z,14.02
2022-08-19T00:41:56.077Z,12.45
2022-08-19T00:44:27.429Z,12.63
2022-08-19T00:46:58.757Z,12.25
2022-08-19T00:49:34.970Z,12.95
2022-08-19T00:52:06.650Z,11.82
2022-08-19T00:54:37.645Z,11.32
2022-08-19T00:57:09.931Z,12.18
2022-08-19T00:59:56.105Z,11.68
2022-08-19T01:02:32.385Z,11.18
2022-08-19T01:05:07.082Z,11.50
2022-08-19T01:07:38.345Z,11.13
2022-08-19T01:10:10.314Z,10.60
2022-08-19T01:12:40.272Z,10.80
2022-08-19T01:15:11.829Z,11.05
2022-08-19T01:17:41.442Z,10.27
2022-08-19T01:20:15.642Z,10.40
2022-08-19T01:22:49.529Z,11.10
2022-08-19T01:25:22.957Z,10.65
2022-08-19T01:27:53.871Z,10.80
2022-08-19T01:30:26.612Z,10.00
2022-08-19T01:32:55.962Z,10.45
2022-08-19T01:35:26.354Z,10.57
2022-08-19T01:37:58.790Z,10.88
2022-08-19T01:40:32.714Z,11.07
2022-08-19T01:43:01.808Z,10.25
2022-08-19T01:45:32.255Z,10.98
2022-08-19T01:48:02.513Z,10.18
2022-08-19T01:50:32.541Z,10.98
2022-08-19T01:53:06.834Z,10.50
2022-08-19T01:55:40.662Z,10.25
2022-08-19T01:58:15.914Z,10.38
2022-08-19T02:00:46.245Z,10.75
2022-08-19T02:03:15.368Z,10.20
2022-08-19T02:05:44.907Z,10.32
2022-08-19T02:08:14.970Z,10.85
2022-08-19T02:10:45.500Z,11.45
2022-08-19T02:13:15.413Z,11.90
2022-08-19T02:15:44.362Z,11.20
2022-08-19T02:18:13.396Z,11.60
2022-08-19T02:20:43.877Z,11.27
2022-08-19T02:23:16.017Z,11.50
2022-08-19T02:25:45.624Z,11.88
2022-08-19T02:28:18.383Z,10.75
2022-08-19T02:30:48.923Z,11.18
2022-08-19T02:33:18.304Z,11.00
2022-08-19T02:35:47.985Z,11.25
2022-08-19T02:38:30.352Z,11.00
2022-08-19T02:41:00.985Z,11.23
2022-08-19T02:43:33.960Z,11.52
2022-08-19T02:46:04.270Z,10.75
2022-08-19T02:48:33.969Z,11.40
2022-08-19T02:51:02.703Z,10.23
2022-08-19T02:53:32.843Z,10.70
2022-08-19T02:56:01.474Z,11.60
2022-08-19T02:58:30.096Z,10.38
2022-08-19T03:00:59.504Z,10.10
2022-08-19T03:03:28.663Z,11.27
2022-08-19T03:06:09.449Z,10.85
2022-08-19T03:08:40.661Z,10.15
2022-08-19T03:11:15.197Z,11.43
2022-08-19T03:13:44.895Z,11.43
2022-08-19T03:16:14.646Z,10.68
2022-08-19T03:18:43.933Z,11.73
2022-08-19T03:21:17.922Z,11.30
2022-08-19T03:23:48.692Z,10.98
2022-08-19T03:26:17.742Z,11.95
2022-08-19T03:28:51.741Z,10.85
2022-08-19T03:31:45.110Z,11.75
2022-08-19T03:34:21.036Z,12.02
2022-08-19T03:36:50.399Z,11.70
2022-08-19T03:39:20.430Z,11.80
2022-08-19T03:42:31.862Z,11.60
2022-08-19T03:44:43.297Z,12.07
2022-08-19T03:47:17.857Z,11.57
2022-08-19T03:49:47.306Z,12.05
2022-08-19T03:52:16.663Z,12.40
2022-08-19T03:54:46.648Z,12.93
2022-08-19T03:57:15.197Z,11.52
2022-08-19T03:59:44.505Z,11.48
2022-08-19T04:02:14.500Z,11.48
2022-08-19T04:04:44.865Z,12.10
2022-08-19T04:07:17.049Z,12.50
2022-08-19T04:09:47.065Z,12.18
2022-08-19T04:12:16.546Z,12.20
2022-08-19T04:14:45.488Z,12.23
2022-08-19T04:17:15.195Z,12.25
2022-08-19T04:19:43.972Z,12.35
2022-08-19T04:22:13.601Z,12.43
2022-08-19T04:24:42.238Z,11.68
2022-08-19T04:27:12.162Z,12.27
2022-08-19T04:29:41.375Z,11.82
2022-08-19T04:32:10.101Z,12.00
2022-08-19T04:35:01.533Z,12.00
2022-08-19T04:37:34.658Z,11.98
2022-08-19T04:40:24.386Z,11.02
2022-08-19T04:42:55.061Z,12.13
2022-08-19T04:45:24.267Z,11.43
2022-08-19T04:48:26.316Z,11.50
2022-08-19T04:50:46.982Z,11.15
2022-08-19T04:53:16.210Z,11.65
2022-08-19T04:55:45.061Z,11.35
2022-08-19T04:58:15.005Z,10.88
2022-08-19T05:00:44.463Z,10.68
2022-08-19T05:03:14.072Z,10.27
2022-08-19T05:05:44.996Z,10.60
2022-08-19T05:08:31.463Z,10.27
2022-08-19T05:11:00.691Z,10.27
2022-08-19T05:13:30.682Z,10.80
2022-08-19T05:16:00.865Z,10.63
2022-08-19T05:18:47.116Z,10.65
2022-08-19T05:21:35.777Z,9.85
2022-08-19T05:24:04.777Z,10.45
2022-08-19T05:26:33.355Z,9.88
2022-08-19T05:29:04.760Z,10.15
2022-08-19T05:31:33.703Z,9.50
2022-08-19T05:34:02.858Z,11.05
2022-08-19T05:36:39.297Z,10.85
2022-08-19T05:39:09.634Z,10.25
2022-08-19T05:41:38.585Z,10.48
2022-08-19T05:44:10.157Z,9.77
2022-08-19T05:46:40.157Z,10.20
2022-08-19T05:49:10.074Z,10.18
2022-08-19T05:51:38.910Z,11.40
2022-08-19T05:54:09.420Z,9.25
2022-08-19T05:56:39.198Z,11.40
2022-08-19T05:59:12.089Z,10.98
2022-08-19T06:01:41.769Z,12.02
2022-08-19T06:04:10.624Z,10.00
2022-08-19T06:06:39.365Z,10.13
2022-08-19T06:09:10.866Z,10.80
2022-08-19T06:11:42.772Z,9.93
2022-08-19T06:14:16.768Z,10.13
2022-08-19T06:16:46.749Z,10.15
2022-08-19T06:19:18.186Z,10.25
2022-08-19T06:21:49.301Z,10.50
2022-08-19T06:24:20.942Z,9.55
2022-08-19T06:26:51.541Z,10.18
2022-08-19T06:29:26.487Z,9.88
2022-08-19T06:31:59.122Z,9.20
2022-08-19T06:34:29.586Z,9.57
2022-08-19T06:37:02.295Z,9.82
2022-08-19T06:39:34.738Z,9.45
2022-08-19T06:42:07.248Z,9.88
2022-08-19T06:44:43.829Z,10.05
2022-08-19T06:47:23.777Z,10.15
2022-08-19T06:50:04.119Z,10.07
2022-08-19T06:52:36.851Z,9.85
2022-08-19T06:55:08.436Z,9.00
2022-08-19T06:57:37.246Z,9.80
2022-08-19T07:00:13.057Z,9.73
2022-08-19T07:02:48.030Z,9.57
2022-08-19T07:05:24.499Z,9.82
2022-08-19T07:07:53.394Z,10.18
2022-08-19T07:10:26.376Z,9.90
2022-08-19T07:12:55.301Z,10.07
2022-08-19T07:15:25.790Z,9.90
2022-08-19T07:17:54.614Z,10.55
2022-08-19T07:20:28.329Z,9.80
2022-08-19T07:22:57.726Z,9.55
2022-08-19T07:25:32.151Z,10.00
2022-08-19T07:28:02.314Z,10.57
2022-08-19T07:30:33.519Z,10.02
2022-08-19T07:33:03.793Z,10.15
2022-08-19T07:35:33.074Z,9.85
2022-08-19T07:38:03.775Z,9.93
2022-08-19T07:40:33.239Z,10.40
2022-08-19T07:43:02.338Z,10.02
2022-08-19T07:45:33.245Z,9.80
2022-08-19T07:48:02.240Z,10.20
2022-08-19T07:50:31.394Z,10.60
2022-08-19T07:53:00.251Z,9.68
2022-08-19T07:55:43.504Z,10.02
2022-08-19T07:58:14.731Z,10.15
2022-08-19T08:00:45.858Z,9.52
2022-08-19T08:03:15.655Z,9.65
2022-08-19T08:06:02.076Z,10.25
2022-08-19T08:08:48.589Z,9.52
2022-08-19T08:11:20.708Z,10.68
2022-08-19T08:14:01.325Z,10.75
2022-08-19T08:16:39.799Z,10.48
2022-08-19T08:19:25.407Z,10.65
2022-08-19T08:21:55.869Z,9.95
2022-08-19T08:24:28.691Z,10.10
2022-08-19T08:26:58.760Z,10.38
2022-08-19T08:29:34.959Z,10.43
2022-08-19T08:32:14.846Z,10.45
2022-08-19T08:34:44.356Z,10.57
2022-08-19T08:37:13.929Z,10.88
2022-08-19T08:39:45.173Z,10.80
2022-08-19T08:42:23.042Z,10.40
2022-08-19T08:47:52.494Z,9.95
2022-08-19T08:50:27.797Z,10.00
2022-08-19T08:52:59.412Z,10.63
2022-08-19T08:55:37.061Z,10.07
2022-08-19T08:58:15.015Z,9.88
2022-08-19T09:00:48.192Z,10.90
2022-08-19T09:03:23.719Z,9.95
2022-08-19T09:06:01.793Z,10.68
2022-08-19T09:08:44.168Z,10.75
2022-08-19T09:11:41.936Z,10.43
2022-08-19T09:14:34.908Z,10.32
2022-08-19T09:17:04.356Z,10.10
2022-08-19T09:19:35.171Z,10.95
2022-08-19T09:22:04.022Z,10.65
2022-08-19T09:24:32.934Z,9.85
2022-08-19T09:27:05.533Z,10.07
2022-08-19T09:29:49.027Z,10.70
2022-08-19T09:32:26.730Z,11.65
2022-08-19T09:34:59.153Z,9.55
2022-08-19T09:37:28.132Z,10.32
2022-08-19T09:39:58.191Z,10.00
2022-08-19T09:42:29.877Z,10.27
2022-08-19T09:45:00.061Z,9.48
2022-08-19T09:47:29.510Z,9.77
2022-08-19T09:50:02.010Z,10.95
2022-08-19T09:52:32.744Z,10.75
2022-08-19T09:55:01.998Z,10.55
2022-08-19T09:57:36.665Z,9.75
2022-08-19T10:00:08.112Z,10.63
2022-08-19T10:02:37.760Z,9.80
2022-08-19T10:05:26.779Z,9.50
2022-08-19T10:07:56.908Z,9.27
2022-08-19T10:10:25.895Z,8.82
2022-08-19T10:12:56.168Z,8.63
2022-08-19T10:15:29.110Z,9.77
2022-08-19T10:17:59.868Z,9.10
2022-08-19T10:20:31.723Z,9.15
2022-08-19T10:23:00.877Z,8.93
2022-08-19T10:25:30.876Z,10.70
2022-08-19T10:27:59.716Z,8.10
2022-08-19T10:30:28.780Z,7.78
2022-08-19T10:32:57.575Z,8.15
2022-08-19T10:35:27.637Z,7.65
2022-08-19T10:38:00.285Z,7.07
2022-08-19T10:40:31.619Z,9.60
2022-08-19T10:43:00.470Z,7.07
2022-08-19T10:45:29.244Z,7.38
2022-08-19T10:47:58.577Z,6.97
2022-08-19T10:50:44.824Z,8.18
2022-08-19T10:53:15.294Z,7.30
2022-08-19T10:56:01.277Z,6.70
2022-08-19T10:58:30.040Z,7.90
2022-08-19T11:01:00.943Z,8.40
2022-08-19T11:03:31.252Z,7.28
2022-08-19T11:06:01.244Z,7.22
2022-08-19T11:08:31.870Z,7.25
2022-08-19T11:11:04.181Z,6.60
2022-08-19T11:13:36.285Z,6.70
2022-08-19T11:16:08.763Z,6.38
2022-08-19T11:18:39.500Z,6.85
2022-08-19T11:21:11.554Z,7.25
2022-08-19T11:23:42.733Z,7.40
2022-08-19T11:26:12.056Z,5.68
2022-08-19T11:28:41.037Z,5.60
2022-08-19T11:31:13.090Z,6.55
2022-08-19T11:33:42.560Z,6.63
2022-08-19T11:36:17.049Z,6.72
2022-08-19T11:38:49.418Z,6.90
2022-08-19T11:41:20.227Z,6.78
2022-08-19T11:43:49.221Z,6.38
2022-08-19T11:46:19.342Z,6.13
2022-08-19T11:48:49.197Z,6.80
2022-08-19T11:51:20.811Z,6.20
2022-08-19T11:53:51.421Z,6.60
2022-08-19T11:56:21.077Z,7.72
2022-08-19T11:58:50.285Z,6.13
2022-08-19T12:01:20.835Z,5.97
2022-08-19T12:03:51.666Z,6.00
2022-08-19T12:06:25.046Z,5.50
2022-08-19T12:08:55.946Z,5.88
2022-08-19T12:11:25.698Z,5.55
2022-08-19T12:13:55.354Z,5.10
2022-08-19T12:16:26.420Z,5.10
2022-08-19T12:18:56.982Z,6.00
2022-08-19T12:21:29.544Z,7.40
2022-08-19T12:24:02.111Z,5.53
2022-08-19T12:26:32.432Z,7.68
2022-08-19T12:29:01.922Z,5.03
2022-08-19T12:31:31.592Z,5.45
2022-08-19T12:34:02.023Z,5.38
2022-08-19T12:36:31.511Z,4.85
2022-08-19T12:39:03.619Z,5.22
2022-08-19T12:41:32.487Z,6.22
2022-08-19T12:44:01.897Z,5.63
2022-08-19T12:46:30.590Z,5.50
2022-08-19T12:49:00.495Z,5.57
2022-08-19T12:51:34.118Z,5.57
2022-08-19T12:54:06.026Z,5.45
2022-08-19T12:56:35.195Z,5.47
2022-08-19T12:59:05.069Z,5.78
2022-08-19T13:01:34.138Z,5.45
2022-08-19T13:04:03.040Z,6.03
2022-08-19T13:06:31.980Z,6.15
2022-08-19T13:09:00.755Z,5.32
2022-08-19T13:11:33.454Z,5.82
2022-08-19T13:14:04.820Z,13.13
2022-08-19T13:16:33.977Z,5.57
2022-08-19T13:19:04.265Z,5.68
2022-08-19T13:21:33.227Z,5.20
2022-08-19T13:24:02.197Z,5.20
2022-08-19T13:26:34.913Z,6.00
2022-08-19T13:29:17.473Z,6.35
2022-08-19T13:32:03.496Z,5.43
2022-08-19T13:34:37.992Z,5.70
2022-08-19T13:37:07.269Z,5.65
2022-08-19T13:39:37.532Z,6.60
2022-08-19T13:42:09.371Z,7.38
2022-08-19T13:44:38.026Z,7.00
2022-08-19T13:47:09.239Z,7.18
2022-08-19T13:49:38.622Z,7.90
2022-08-19T13:52:08.193Z,7.45
2022-08-19T13:54:37.014Z,9.63
2022-08-19T13:57:07.796Z,8.50
2022-08-19T13:59:36.849Z,8.38
2022-08-19T14:02:06.413Z,6.97
2022-08-19T14:04:35.274Z,6.82
2022-08-19T14:07:04.392Z,7.47
2022-08-19T14:09:33.432Z,7.68
2022-08-19T14:12:02.388Z,8.20
2022-08-19T14:14:33.570Z,8.13
2022-08-19T14:17:02.198Z,8.20
2022-08-19T14:19:30.783Z,8.88
2022-08-19T14:21:59.747Z,9.18
2022-08-19T14:24:28.695Z,8.00
2022-08-19T14:26:57.539Z,8.05
2022-08-19T14:29:26.408Z,9.05
2022-08-19T14:31:57.235Z,8.43
2022-08-19T14:34:26.151Z,8.25
2022-08-19T14:36:55.210Z,8.88
2022-08-19T14:39:24.047Z,8.57
2022-08-19T14:41:53.045Z,9.65
2022-08-19T14:44:22.772Z,9.20
2022-08-19T14:46:51.474Z,8.98
2022-08-19T14:49:31.977Z,8.20
2022-08-19T14:52:05.789Z,8.82
2022-08-19T14:54:34.772Z,8.65
2022-08-19T14:57:03.546Z,9.07
2022-08-19T14:59:32.189Z,8.70
2022-08-19T15:02:34.059Z,10.20
2022-08-19T15:04:58.360Z,10.82
2022-08-19T15:07:29.562Z,9.90
2022-08-19T15:09:58.834Z,10.02
2022-08-19T15:12:28.037Z,11.23
2022-08-19T15:14:57.207Z,10.15
2022-08-19T15:17:32.402Z,10.98
2022-08-19T15:20:18.508Z,11.05
2022-08-19T15:22:48.134Z,13.38
2022-08-19T15:25:19.801Z,12.00
2022-08-19T15:27:48.997Z,11.38
2022-08-19T15:30:23.891Z,12.00
2022-08-19T15:32:55.725Z,11.57
2022-08-19T15:35:26.677Z,12.32
2022-08-19T15:37:56.846Z,11.88
2022-08-19T15:40:27.423Z,13.27
2022-08-19T15:42:56.422Z,12.50
2022-08-19T15:45:32.867Z,11.40
2022-08-19T15:48:03.078Z,12.00
2022-08-19T15:50:34.074Z,11.52
2022-08-19T15:53:05.054Z,11.80
2022-08-19T15:55:35.828Z,11.32
2022-08-19T15:58:28.619Z,11.60
2022-08-19T16:01:17.809Z,12.13
2022-08-19T16:04:11.322Z,12.13
2022-08-19T16:06:47.885Z,11.18
2022-08-19T16:09:17.979Z,11.73
2022-08-19T16:11:56.527Z,12.63
2022-08-19T16:14:26.489Z,10.75
2022-08-19T16:16:56.741Z,10.25
2022-08-19T16:19:25.927Z,9.88
2022-08-19T16:21:58.165Z,10.40
2022-08-19T16:24:28.547Z,10.30
2022-08-19T16:26:57.801Z,10.40
2022-08-19T16:29:34.497Z,10.30
2022-08-19T16:32:09.988Z,9.35
2022-08-19T16:34:40.067Z,9.73
2022-08-19T16:37:10.666Z,10.07
2022-08-19T16:39:39.617Z,9.45
2022-08-19T16:42:09.920Z,9.52
2022-08-19T16:44:41.797Z,9.38
2022-08-19T16:47:10.992Z,9.10
2022-08-19T16:49:53.298Z,9.27
2022-08-19T16:52:26.308Z,9.63
2022-08-19T16:54:54.999Z,8.75
2022-08-19T16:57:24.902Z,9.30
2022-08-19T16:59:53.664Z,9.77
2022-08-19T17:02:23.599Z,12.57
2022-08-19T17:04:59.294Z,10.68
2022-08-19T17:07:33.311Z,10.90
2022-08-19T17:10:03.559Z,11.38
2022-08-19T17:12:32.615Z,12.30
2022-08-19T17:15:02.621Z,12.43
2022-08-19T17:17:32.439Z,12.38
2022-08-19T17:20:02.868Z,12.20
2022-08-19T17:22:33.070Z,12.85
2022-08-19T17:25:01.894Z,12.82
2022-08-19T17:27:32.765Z,13.27
2022-08-19T17:30:02.456Z,13.70
2022-08-19T17:32:32.478Z,14.18
2022-08-19T17:35:01.060Z,14.13
2022-08-19T17:37:29.595Z,15.50
2022-08-19T17:39:59.595Z,15.05
2022-08-19T17:42:28.224Z,16.00
2022-08-19T17:44:59.226Z,15.98
2022-08-19T17:47:28.527Z,15.25
2022-08-19T17:49:57.629Z,15.63
2022-08-19T17:52:26.303Z,15.98
2022-08-19T17:54:54.817Z,14.80
2022-08-19T17:57:24.787Z,16.13
2022-08-19T17:59:53.872Z,15.13
2022-08-19T18:02:22.847Z,15.25
2022-08-19T18:04:51.810Z,16.05
2022-08-19T18:07:21.941Z,15.55
2022-08-19T18:09:52.761Z,14.63
2022-08-19T18:12:26.658Z,15.35
2022-08-19T18:14:55.309Z,14.98
2022-08-19T18:17:26.027Z,14.80
2022-08-19T18:19:54.820Z,15.25
2022-08-19T18:22:26.697Z,14.50
2022-08-19T18:24:57.152Z,15.85
2022-08-19T18:27:28.368Z,15.43
2022-08-19T18:29:59.471Z,16.85
2022-08-19T18:32:31.871Z,15.82
2022-08-19T18:35:02.029Z,16.15
2022-08-19T18:37:30.844Z,16.15
2022-08-19T18:40:16.901Z,16.30
2022-08-19T18:43:17.752Z,15.32
2022-08-19T18:46:07.159Z,15.45
2022-08-19T18:48:53.671Z,15.95
2022-08-19T18:51:28.162Z,15.80
2022-08-19T18:53:58.746Z,16.05
2022-08-19T18:56:32.373Z,15.75
2022-08-19T18:59:03.393Z,16.00
2022-08-19T19:01:36.659Z,16.60
2022-08-19T19:04:10.636Z,17.25
2022-08-19T19:06:41.435Z,16.92
2022-08-19T19:09:12.539Z,17.77
2022-08-19T19:11:44.070Z,18.15
2022-08-19T19:14:32.717Z,17.92
2022-08-19T19:17:07.895Z,19.10
2022-08-19T19:19:36.813Z,18.75
2022-08-19T19:22:06.107Z,18.45
2022-08-19T19:24:37.456Z,18.10
2022-08-19T19:27:08.415Z,18.67
2022-08-19T19:29:39.023Z,20.33
2022-08-19T19:32:10.883Z,19.92
2022-08-19T19:34:40.092Z,19.17
2022-08-19T19:37:09.192Z,19.20
2022-08-19T19:39:46.102Z,19.80
2022-08-19T19:42:19.905Z,20.60
2022-08-19T19:44:54.867Z,19.90
2022-08-19T19:47:25.774Z,21.55
2022-08-19T19:52:47.006Z,21.58
2022-08-19T19:55:19.035Z,21.92
2022-08-19T19:57:48.827Z,22.23
2022-08-19T20:00:20.951Z,26.60
2022-08-19T20:02:51.134Z,22.33
2022-08-19T20:05:21.441Z,22.48
2022-08-19T20:08:08.510Z,21.90
2022-08-19T20:10:38.164Z,22.50
2022-08-19T20:13:08.337Z,22.65
2022-08-19T20:15:42.562Z,22.27
2022-08-19T20:18:14.327Z,22.27
2022-08-19T20:20:43.152Z,21.92
2022-08-19T20:23:11.977Z,20.80
2022-08-19T20:25:41.039Z,21.08
2022-08-19T20:28:09.908Z,21.85
2022-08-19T20:30:43.337Z,22.92
2022-08-19T20:33:16.757Z,23.75
2022-08-19T20:35:46.204Z,21.30
2022-08-19T20:38:15.714Z,22.05
2022-08-19T20:40:44.362Z,21.02
2022-08-19T20:43:14.349Z,22.35
2022-08-19T20:45:44.307Z,20.58
2022-08-19T20:48:13.636Z,20.85
2022-08-19T20:50:42.340Z,21.50
2022-08-19T20:53:13.419Z,21.75
2022-08-19T20:55:45.411Z,21.73
2022-08-19T20:58:14.768Z,20.83
2022-08-19T21:00:45.890Z,20.35
2022-08-19T21:03:17.926Z,21.70
2022-08-19T21:05:47.451Z,21.25
2022-08-19T21:08:17.384Z,21.00
2022-08-19T21:10:46.398Z,19.90
2022-08-19T21:13:15.678Z,21.30
2022-08-19T21:15:46.164Z,20.23
2022-08-19T21:18:18.097Z,19.95
2022-08-19T21:20:48.265Z,21.15
2022-08-19T21:23:20.016Z,20.95
2022-08-19T21:25:54.372Z,20.30
2022-08-19T21:28:35.072Z,21.17
2022-08-19T21:31:10.617Z,21.08
2022-08-19T21:33:40.870Z,21.80
2022-08-19T21:36:10.438Z,21.40
2022-08-19T21:38:39.440Z,21.35
2022-08-19T21:41:08.441Z,21.48
2022-08-19T21:43:38.528Z,23.13
2022-08-19T21:46:09.136Z,23.38
2022-08-19T21:48:38.271Z,23.55
2022-08-19T21:51:07.954Z,23.80
2022-08-19T21:53:37.122Z,23.25
2022-08-19T21:56:07.496Z,23.85
2022-08-19T21:58:36.769Z,23.48
2022-08-19T22:01:08.130Z,24.20
2022-08-19T22:03:40.192Z,24.05
2022-08-19T22:06:09.738Z,25.33
2022-08-19T22:08:38.890Z,25.05
2022-08-19T22:11:07.891Z,24.83
2022-08-19T22:13:41.536Z,25.42
2022-08-19T22:16:11.394Z,26.40
2022-08-19T22:18:42.106Z,26.88
2022-08-19T22:21:12.303Z,26.30
2022-08-19T22:23:42.254Z,25.85
2022-08-19T22:26:10.964Z,26.70
2022-08-19T22:28:40.161Z,28.17
2022-08-19T22:31:10.430Z,29.08
2022-08-19T22:33:39.556Z,29.83
2022-08-19T22:36:10.479Z,29.77
2022-08-19T22:38:39.316Z,28.88
2022-08-19T22:41:08.268Z,28.42
2022-08-19T22:43:38.215Z,27.90
2022-08-19T22:46:16.908Z,28.60
2022-08-19T22:48:47.446Z,27.90
2022-08-19T22:51:35.210Z,28.15
2022-08-19T22:54:05.219Z,27.70
2022-08-19T22:56:34.944Z,29.20
2022-08-19T22:59:04.054Z,29.52
2022-08-19T23:01:32.904Z,30.42
2022-08-19T23:04:03.982Z,30.67
2022-08-19T23:06:36.453Z,29.60
2022-08-19T23:09:09.293Z,29.80
2022-08-19T23:11:41.992Z,30.80
2022-08-19T23:14:12.946Z,30.02
2022-08-19T23:16:42.488Z,28.63
2022-08-19T23:19:11.907Z,32.00
2022-08-19T23:21:43.455Z,30.25
2022-08-19T23:24:13.195Z,30.80
2022-08-19T23:27:03.546Z,30.00
2022-08-19T23:29:52.755Z,30.50
2022-08-19T23:32:25.583Z,32.05
2022-08-19T23:34:57.223Z,32.10
2022-08-19T23:37:30.302Z,32.08
2022-08-19T23:39:59.361Z,31.73
2022-08-19T23:42:28.950Z,32.72
2022-08-19T23:45:02.516Z,32.55
2022-08-19T23:47:34.078Z,32.53
2022-08-19T23:50:06.775Z,31.48
2022-08-19T23:52:44.870Z,31.17
2022-08-19T23:55:14.193Z,32.08
2022-08-19T23:57:42.795Z,31.77
